Calgary, Canada
Current Conditions -  °F | °C
As of 6:00 AM on Friday 19 Dec 2014 (Local Time) from CYYC Reporting Station
Broken Clouds Broken Clouds  
Wind Chill: -13°   Ceiling: 22000
Heat Index: -7°   Visibility: 15mi
Dew Point: -9°   Wind: 8mph
Humidity: 86%   Direction: 200°SSW
Pressure: 29.69"   Gusts: NA
Location:  51.05°N, 114.06°W
Report Text: CYYC 191300Z 20007KT 15SM BKN220 M07/M09 A2969 RMK CI5 SLP104
Loading
Personal Weather Stations






























Interactive Weather Map New forecast layout! Learn more

10-Day Weather Forecast

Advertisements
Track Severe Weather on mobile